Converse, TX (78109)

1:02 PM CDT on September 03, 2015 (GMT -0500)
Sayers | | Change Station
CLOSE
Current Station
Personal Weather Station
Location: Adkins, TX
Elevation: 582 ft
Nearby Weather Stations

Elev 582 ft 29.39 °N, 98.28 °W | Updated 28 seconds ago

Mostly Cloudy
Mostly Cloudy
88.4 °F
Feels Like 94 °F
N
1.3
Wind Variable Wind from South
Gusts 6.6 mph

Today
High -- | Low -- °F
--% Chance of Precip.
Yesterday
High -- | Low -- °F
Precip. -- in
7:11 AM 7:53 PM
Waning Gibbous, 68% visible
Pressure 29.93 in
Visibility 10.0 miles
Clouds Scattered Clouds 4000 ft
Heat Index 94 °F
Dew Point 70 °F
Humidity 55%
Rainfall 0.00 in
Snow Depth Not available.
UV 9 out of 12
Pollen 8.80 out of 12
Air Quality Not available.
Flu Activity Not available.
METAR KRND 031758Z 11005KT 10SM SCT040 31/20 A2995 RMK AO2A SLP133 T03100195 10311 20226 58009
Pressure 29.93 in
Visibility 10.0 miles
Clouds Scattered Clouds 4000 ft
Heat Index 94 °F
Dew Point 70 °F
Humidity 55%
Rainfall 0.00 in
Snow Depth Not available.
UV 9 out of 12
Pollen 8.80 out of 12
Air Quality Not available.
Flu Activity Not available.
METAR KRND 031758Z 11005KT 10SM SCT040 31/20 A2995 RMK AO2A SLP133 T03100195 10311 20226 58009

10-Day Weather Forecast

×

Almanac

Astronomy

Sep. 03, 2015 Rise Set
Actual Time
Civil Twilight
Nautical Twilight
Astronomical Twilight
Moon
Length of Visible Light
Length of Day
Tomorrow will be .
, % of the Moon is Illuminated

Today's Extremes

State Highs State Lows

Community

WunderPhotos

Upload Photos

1,851,995 photos uploaded!

WunderBlogs® & News

Nearby

Air Quality

  Air Quality AQ Index Pollutant
Not available.

Snow Depth

Station Depth Elevation

Earthquake Activity

City Distance Mag. Time & Date
Minimum magnitude displayed is 2.5.

Coastal Water Temperatures

Place Temperature

Stations

Nearby Weather Stations

Station Location Temp. Windchill Dew Point Humidity Wind Precip. Elev Updated Type